Time;durP1;ratioP1;P1;durP2;ratioP2;P2;SDS_P1;SDS_P2;PMS_P1;PMS_P2;Temp;Humidity;BMP_temperature;BMP_pressure;BME280_temperature;BME280_humidity;BME280_pressure;Samples;Min_cycle;Max_cycle;Signal;HPM_P1;HPM_P2
2024/01/13 00:00:34;;;;;;;7.53;4.40;;;;;;;;;;5030096;28;20080;-78
2024/01/13 00:03:00;;;;;;;7.40;4.70;;;;;;;;;;5028325;28;20054;-78
2024/01/13 00:05:26;;;;;;;8.73;4.38;;;;;;;;;;5028057;28;20088;-78
2024/01/13 00:07:52;;;;;;;7.55;4.28;;;;;;;;;;5028710;28;20125;-78
2024/01/13 00:10:18;;;;;;;7.63;4.15;;;;;;;;;;5027939;28;20042;-78
2024/01/13 00:12:44;;;;;;;5.85;3.80;;;;;;;;;;5028567;28;20590;-78
2024/01/13 00:15:11;;;;;;;7.45;4.03;;;;;;;;;;5026335;28;20108;-78
2024/01/13 00:17:36;;;;;;;6.03;4.32;;;;;;;;;;5026938;28;20056;-78
2024/01/13 00:20:03;;;;;;;9.45;5.15;;;;;;;;;;5011887;28;20045;-78
2024/01/13 00:22:29;;;;;;;8.20;3.80;;;;;;;;;;5010863;28;20503;-78
2024/01/13 00:24:55;;;;;;;6.57;4.10;;;;;;;;;;5028920;28;20041;-78
2024/01/13 00:27:21;;;;;;;4.88;3.38;;;;;;;;;;5028316;28;20415;-78
2024/01/13 00:29:47;;;;;;;7.40;3.60;;;;;;;;;;5008764;28;20077;-78
2024/01/13 00:32:13;;;;;;;6.05;3.75;;;;;;;;;;4991950;28;20125;-78
2024/01/13 00:34:39;;;;;;;6.45;3.58;;;;;;;;;;5000334;28;20077;-78
2024/01/13 00:37:05;;;;;;;5.90;3.50;;;;;;;;;;5027336;28;20061;-79
2024/01/13 00:39:31;;;;;;;4.00;3.10;;;;;;;;;;4995295;28;20053;-78
2024/01/13 00:41:57;;;;;;;3.60;3.00;;;;;;;;;;5010735;28;20083;-78
2024/01/13 00:44:23;;;;;;;5.60;3.03;;;;;;;;;;5008000;28;20057;-78
2024/01/13 00:46:49;;;;;;;6.10;3.78;;;;;;;;;;5010237;28;20042;-78
2024/01/13 00:49:15;;;;;;;4.70;3.05;;;;;;;;;;5028265;28;20041;-78
2024/01/13 00:51:41;;;;;;;6.47;3.30;;;;;;;;;;5028537;28;20045;-78
2024/01/13 00:54:10;;;;;;;3.92;3.05;;;;;;;;;;5027974;28;20352;-78
2024/01/13 00:56:36;;;;;;;6.57;3.05;;;;;;;;;;5011586;28;20507;-78
2024/01/13 00:59:02;;;;;;;4.43;2.72;;;;;;;;;;5026723;28;20504;-78
2024/01/13 01:01:28;;;;;;;4.90;3.03;;;;;;;;;;4973995;28;1043223;-78
2024/01/13 01:03:54;;;;;;;6.07;3.58;;;;;;;;;;5028992;28;20045;-78
2024/01/13 01:06:20;;;;;;;9.07;3.72;;;;;;;;;;5029196;28;20087;-78
2024/01/13 01:08:46;;;;;;;5.18;3.38;;;;;;;;;;4994642;28;20048;-78
2024/01/13 01:11:12;;;;;;;5.32;3.40;;;;;;;;;;5010735;28;20034;-78
2024/01/13 01:13:38;;;;;;;8.30;3.47;;;;;;;;;;5028855;28;20041;-78
2024/01/13 01:16:05;;;;;;;5.07;3.47;;;;;;;;;;5029387;28;20143;-78
2024/01/13 01:18:31;;;;;;;7.88;3.35;;;;;;;;;;5029405;28;20053;-78
2024/01/13 01:20:57;;;;;;;5.72;3.30;;;;;;;;;;5011897;28;20052;-78
2024/01/13 01:23:24;;;;;;;8.00;3.60;;;;;;;;;;5010327;28;20041;-78
2024/01/13 01:25:50;;;;;;;4.70;3.58;;;;;;;;;;5028179;28;20068;-78
2024/01/13 01:28:16;;;;;;;7.53;3.72;;;;;;;;;;4995265;28;20042;-78
2024/01/13 01:30:42;;;;;;;5.40;2.97;;;;;;;;;;5028269;28;20057;-78
2024/01/13 01:33:08;;;;;;;4.63;3.10;;;;;;;;;;4994251;28;20422;-78
2024/01/13 01:35:34;;;;;;;5.05;2.95;;;;;;;;;;5029052;28;20037;-78
2024/01/13 01:38:00;;;;;;;8.57;3.53;;;;;;;;;;5027539;28;20045;-78
2024/01/13 01:40:27;;;;;;;4.82;2.90;;;;;;;;;;5029473;28;20042;-78
2024/01/13 01:42:53;;;;;;;6.55;3.20;;;;;;;;;;5027804;28;20049;-78
2024/01/13 01:45:19;;;;;;;4.57;2.88;;;;;;;;;;5010965;28;20127;-78
2024/01/13 01:47:45;;;;;;;5.07;3.03;;;;;;;;;;5028665;28;20655;-78
2024/01/13 01:50:11;;;;;;;6.80;3.13;;;;;;;;;;5028732;28;20045;-78
2024/01/13 01:52:38;;;;;;;5.05;2.75;;;;;;;;;;5028435;28;20037;-78
2024/01/13 01:55:05;;;;;;;6.30;3.20;;;;;;;;;;5010360;28;20057;-78
2024/01/13 01:57:31;;;;;;;4.20;3.10;;;;;;;;;;5010700;28;20080;-78
2024/01/13 01:59:59;;;;;;;6.55;3.22;;;;;;;;;;5008923;28;20076;-78
2024/01/13 02:02:26;;;;;;;5.35;3.25;;;;;;;;;;5027589;28;20061;-78
2024/01/13 02:04:54;;;;;;;6.90;4.22;;;;;;;;;;5030659;28;20045;-78
2024/01/13 02:07:20;;;;;;;6.63;3.47;;;;;;;;;;5035822;28;20053;-78
2024/01/13 02:09:47;;;;;;;6.80;3.70;;;;;;;;;;5028222;28;20128;-78
2024/01/13 02:12:13;;;;;;;8.50;3.90;;;;;;;;;;5027876;28;20148;-78
2024/01/13 02:14:39;;;;;;;7.30;4.03;;;;;;;;;;5029761;28;20049;-78
2024/01/13 02:17:05;;;;;;;9.00;4.03;;;;;;;;;;5029407;28;20107;-78
2024/01/13 02:19:32;;;;;;;8.55;3.83;;;;;;;;;;5028640;28;20763;-78
2024/01/13 02:21:58;;;;;;;9.68;4.20;;;;;;;;;;5011010;28;20057;-78
2024/01/13 02:24:24;;;;;;;6.68;4.00;;;;;;;;;;4999376;28;20046;-78
2024/01/13 02:26:50;;;;;;;6.05;3.65;;;;;;;;;;5023728;28;20049;-78
2024/01/13 02:29:16;;;;;;;7.22;3.65;;;;;;;;;;5011394;28;20084;-78
2024/01/13 02:31:42;;;;;;;9.80;4.13;;;;;;;;;;5028114;28;20511;-78
2024/01/13 02:34:08;;;;;;;7.20;3.90;;;;;;;;;;5009664;28;20089;-78
2024/01/13 02:36:34;;;;;;;7.90;3.72;;;;;;;;;;5010087;28;20040;-78
2024/01/13 02:39:00;;;;;;;8.63;4.13;;;;;;;;;;5027134;28;20038;-78
2024/01/13 02:41:26;;;;;;;7.38;4.38;;;;;;;;;;5028450;28;20072;-78
2024/01/13 02:43:52;;;;;;;6.30;4.13;;;;;;;;;;5026706;28;20499;-79
2024/01/13 02:46:18;;;;;;;6.53;3.92;;;;;;;;;;5028367;28;20049;-78
2024/01/13 02:48:46;;;;;;;7.28;4.20;;;;;;;;;;5027422;28;20037;-78
2024/01/13 02:51:14;;;;;;;8.13;4.38;;;;;;;;;;5009085;28;20057;-78
2024/01/13 02:53:40;;;;;;;8.68;4.72;;;;;;;;;;5009536;28;20076;-78
2024/01/13 02:56:06;;;;;;;5.35;4.35;;;;;;;;;;5018953;28;20778;-78
2024/01/13 02:58:32;;;;;;;6.13;4.10;;;;;;;;;;5028026;28;20045;-78
2024/01/13 03:00:58;;;;;;;7.10;4.32;;;;;;;;;;5010197;28;20056;-78
2024/01/13 03:03:24;;;;;;;7.45;4.15;;;;;;;;;;5027881;28;20162;-78
2024/01/13 03:05:50;;;;;;;6.43;4.03;;;;;;;;;;5028888;28;20096;-79
2024/01/13 03:08:15;;;;;;;8.90;4.97;;;;;;;;;;5027396;28;20053;-79
2024/01/13 03:10:41;;;;;;;8.20;4.82;;;;;;;;;;5027473;28;20053;-79
2024/01/13 03:13:07;;;;;;;9.10;4.65;;;;;;;;;;5008120;28;20056;-78
2024/01/13 03:15:33;;;;;;;8.77;4.88;;;;;;;;;;5028032;28;20275;-78
2024/01/13 03:17:59;;;;;;;10.10;4.55;;;;;;;;;;5027691;28;20061;-78
2024/01/13 03:20:25;;;;;;;9.80;4.65;;;;;;;;;;5011090;28;20048;-78
2024/01/13 03:22:52;;;;;;;7.75;4.80;;;;;;;;;;4992851;28;20056;-78
2024/01/13 03:25:18;;;;;;;11.25;4.97;;;;;;;;;;4993960;28;20456;-78
2024/01/13 03:27:44;;;;;;;9.80;5.25;;;;;;;;;;5028569;28;20056;-78
2024/01/13 03:30:10;;;;;;;7.13;5.05;;;;;;;;;;5028061;28;20414;-78
2024/01/13 03:32:36;;;;;;;6.30;4.55;;;;;;;;;;5026904;28;20565;-78
2024/01/13 03:35:02;;;;;;;5.75;4.55;;;;;;;;;;5027810;28;20191;-78
2024/01/13 03:37:28;;;;;;;7.05;4.70;;;;;;;;;;5027699;28;20411;-79
2024/01/13 03:39:54;;;;;;;8.48;4.57;;;;;;;;;;5010458;28;20050;-78
2024/01/13 03:42:20;;;;;;;5.95;4.15;;;;;;;;;;5027636;28;20115;-78
2024/01/13 03:44:46;;;;;;;7.82;4.20;;;;;;;;;;5010116;28;20041;-78
2024/01/13 03:47:12;;;;;;;7.10;4.50;;;;;;;;;;5027926;28;20112;-78
2024/01/13 03:49:39;;;;;;;7.10;4.05;;;;;;;;;;5011095;28;20469;-78
2024/01/13 03:52:05;;;;;;;9.02;4.32;;;;;;;;;;4993766;28;20803;-78
2024/01/13 03:54:31;;;;;;;9.57;3.97;;;;;;;;;;5000086;28;20079;-78
2024/01/13 03:56:57;;;;;;;6.97;3.80;;;;;;;;;;5006769;28;20099;-78
2024/01/13 03:59:23;;;;;;;6.45;3.70;;;;;;;;;;5008859;28;20129;-78
2024/01/13 04:01:49;;;;;;;8.27;4.25;;;;;;;;;;5009845;28;20057;-77
2024/01/13 04:04:15;;;;;;;5.15;3.42;;;;;;;;;;4994056;28;20120;-78
2024/01/13 04:06:41;;;;;;;9.98;4.10;;;;;;;;;;5026790;28;20045;-78
2024/01/13 04:09:08;;;;;;;7.43;4.00;;;;;;;;;;5025666;28;20060;-78
2024/01/13 04:11:34;;;;;;;6.93;4.10;;;;;;;;;;5009133;28;20061;-78
2024/01/13 04:14:00;;;;;;;9.00;3.90;;;;;;;;;;4992589;28;20050;-78
2024/01/13 04:16:26;;;;;;;6.00;3.75;;;;;;;;;;4992195;28;20072;-78
2024/01/13 04:18:52;;;;;;;6.13;3.90;;;;;;;;;;5030939;28;20128;-78
2024/01/13 04:21:18;;;;;;;7.25;3.88;;;;;;;;;;5011939;28;20565;-78
2024/01/13 04:23:44;;;;;;;7.75;4.03;;;;;;;;;;5031531;28;20136;-78
2024/01/13 04:26:10;;;;;;;12.27;4.47;;;;;;;;;;5031189;28;20050;-78
2024/01/13 04:28:35;;;;;;;8.95;3.95;;;;;;;;;;5030566;28;20049;-78
2024/01/13 04:31:01;;;;;;;7.68;4.50;;;;;;;;;;5012780;28;20443;-78
2024/01/13 04:33:27;;;;;;;8.40;4.80;;;;;;;;;;5012113;28;20136;-77
2024/01/13 04:35:53;;;;;;;8.68;4.03;;;;;;;;;;5029422;28;20068;-77
2024/01/13 04:38:19;;;;;;;9.63;4.55;;;;;;;;;;5030843;28;20049;-77
2024/01/13 04:40:47;;;;;;;9.05;4.28;;;;;;;;;;4996590;28;20073;-77
2024/01/13 04:43:13;;;;;;;8.65;4.22;;;;;;;;;;5030116;28;20072;-77
2024/01/13 04:45:39;;;;;;;9.90;4.43;;;;;;;;;;4997026;28;20103;-77
2024/01/13 04:48:05;;;;;;;8.00;4.45;;;;;;;;;;5012298;28;20060;-77
2024/01/13 04:50:31;;;;;;;10.02;4.28;;;;;;;;;;5030919;28;20057;-77
2024/01/13 04:52:57;;;;;;;8.73;4.60;;;;;;;;;;5030874;28;20045;-77
2024/01/13 04:55:23;;;;;;;10.85;4.57;;;;;;;;;;5029900;28;20165;-77
2024/01/13 04:57:49;;;;;;;9.75;4.97;;;;;;;;;;5011485;28;20511;-77
2024/01/13 05:00:16;;;;;;;10.85;4.18;;;;;;;;;;5012546;28;20041;-77
2024/01/13 05:02:42;;;;;;;8.50;4.75;;;;;;;;;;5012936;28;20107;-76
2024/01/13 05:05:08;;;;;;;6.72;4.20;;;;;;;;;;4996405;28;20463;-77
2024/01/13 05:07:36;;;;;;;6.15;3.25;;;;;;;;;;5028937;28;20530;-76
2024/01/13 05:10:02;;;;;;;11.95;4.28;;;;;;;;;;5011606;28;20344;-77
2024/01/13 05:12:28;;;;;;;8.77;4.15;;;;;;;;;;5029542;28;20048;-76
2024/01/13 05:14:54;;;;;;;6.38;4.13;;;;;;;;;;5028629;28;20444;-77
2024/01/13 05:17:20;;;;;;;9.45;3.90;;;;;;;;;;5015822;28;20065;-77
2024/01/13 05:19:46;;;;;;;7.97;3.92;;;;;;;;;;5029190;28;20495;-77
2024/01/13 05:22:12;;;;;;;7.47;3.63;;;;;;;;;;5029515;28;20048;-77
2024/01/13 05:24:38;;;;;;;6.90;4.05;;;;;;;;;;4996898;28;20153;-77
2024/01/13 05:27:04;;;;;;;6.13;3.65;;;;;;;;;;5012599;28;20080;-77
2024/01/13 05:29:30;;;;;;;5.00;3.38;;;;;;;;;;5029271;28;20507;-77
2024/01/13 05:31:57;;;;;;;7.00;3.58;;;;;;;;;;5011040;28;20034;-76
2024/01/13 05:34:23;;;;;;;6.60;3.35;;;;;;;;;;5026412;28;20042;-77
2024/01/13 05:36:48;;;;;;;6.15;3.40;;;;;;;;;;5021065;28;20419;-77
2024/01/13 05:39:15;;;;;;;4.03;3.03;;;;;;;;;;5010579;28;20196;-77
2024/01/13 05:41:41;;;;;;;4.85;3.00;;;;;;;;;;5026638;28;20049;-77
2024/01/13 05:44:07;;;;;;;4.45;3.15;;;;;;;;;;5029357;28;20450;-77
2024/01/13 05:46:33;;;;;;;3.60;2.95;;;;;;;;;;5012192;28;20079;-77
2024/01/13 05:49:01;;;;;;;3.65;2.75;;;;;;;;;;5028715;28;20045;-77
2024/01/13 05:51:28;;;;;;;5.15;2.83;;;;;;;;;;5029602;28;20084;-77
2024/01/13 05:53:54;;;;;;;6.35;3.13;;;;;;;;;;5029783;28;20046;-77
2024/01/13 05:56:20;;;;;;;4.43;2.78;;;;;;;;;;5011974;28;20053;-76
2024/01/13 05:58:46;;;;;;;9.25;2.92;;;;;;;;;;5026634;28;20036;-77
2024/01/13 06:01:12;;;;;;;4.05;2.30;;;;;;;;;;5029765;28;20083;-77
2024/01/13 06:03:38;;;;;;;5.47;2.92;;;;;;;;;;5029565;28;20471;-76
2024/01/13 06:06:04;;;;;;;5.28;3.28;;;;;;;;;;4994191;28;20046;-77
2024/01/13 06:08:30;;;;;;;4.65;2.25;;;;;;;;;;5028412;28;20041;-77
2024/01/13 06:10:56;;;;;;;3.25;2.40;;;;;;;;;;5029062;28;20115;-77
2024/01/13 06:13:22;;;;;;;4.70;2.63;;;;;;;;;;5028368;28;20048;-76
2024/01/13 06:15:48;;;;;;;5.05;2.55;;;;;;;;;;5009131;28;20056;-77
2024/01/13 06:18:14;;;;;;;4.32;2.42;;;;;;;;;;5011103;28;20088;-77
2024/01/13 06:20:40;;;;;;;5.82;2.05;;;;;;;;;;5027739;28;20073;-77
2024/01/13 06:23:06;;;;;;;2.95;2.17;;;;;;;;;;5011048;28;20042;-76
2024/01/13 06:25:32;;;;;;;4.63;2.50;;;;;;;;;;5011426;28;20115;-77
2024/01/13 06:27:58;;;;;;;6.18;2.72;;;;;;;;;;5010303;28;20729;-76
2024/01/13 06:30:24;;;;;;;4.57;2.60;;;;;;;;;;5029164;28;20041;-76
2024/01/13 06:32:51;;;;;;;5.60;2.58;;;;;;;;;;5009012;28;20049;-77
2024/01/13 06:35:17;;;;;;;4.13;2.85;;;;;;;;;;5027740;28;20164;-76
2024/01/13 06:37:42;;;;;;;4.80;2.78;;;;;;;;;;5029212;28;20041;-76
2024/01/13 06:40:09;;;;;;;4.53;3.15;;;;;;;;;;5028359;28;20053;-77
2024/01/13 06:42:35;;;;;;;4.68;3.28;;;;;;;;;;5029610;28;20106;-77
2024/01/13 06:45:01;;;;;;;5.53;3.40;;;;;;;;;;5027224;28;20052;-77
2024/01/13 06:47:27;;;;;;;5.70;2.80;;;;;;;;;;5027773;28;20037;-77
2024/01/13 06:49:53;;;;;;;4.05;2.75;;;;;;;;;;5027615;28;20037;-77
2024/01/13 06:52:19;;;;;;;5.93;2.92;;;;;;;;;;5027671;28;20052;-76
2024/01/13 06:54:45;;;;;;;4.65;2.72;;;;;;;;;;5026833;28;20049;-76
2024/01/13 06:57:11;;;;;;;5.65;2.85;;;;;;;;;;5009150;28;20044;-77
2024/01/13 06:59:37;;;;;;;5.82;3.22;;;;;;;;;;5009879;28;20049;-77
2024/01/13 07:02:04;;;;;;;3.88;2.65;;;;;;;;;;5027721;28;20053;-77
2024/01/13 07:04:31;;;;;;;5.43;2.83;;;;;;;;;;5028061;28;20060;-77
2024/01/13 07:06:57;;;;;;;5.68;2.83;;;;;;;;;;5025138;28;20140;-77
2024/01/13 07:09:23;;;;;;;8.18;3.10;;;;;;;;;;5029266;28;20120;-77
2024/01/13 07:11:49;;;;;;;5.03;2.80;;;;;;;;;;5028199;28;20049;-77
2024/01/13 07:14:15;;;;;;;4.70;2.83;;;;;;;;;;5023923;28;20041;-77
2024/01/13 07:16:41;;;;;;;3.88;2.80;;;;;;;;;;5027515;28;20045;-76
2024/01/13 07:19:07;;;;;;;5.60;2.95;;;;;;;;;;5028700;28;20103;-77
2024/01/13 07:21:33;;;;;;;5.30;2.40;;;;;;;;;;5029166;28;20045;-77
2024/01/13 07:23:59;;;;;;;4.25;2.92;;;;;;;;;;5028530;28;20072;-77
2024/01/13 07:26:25;;;;;;;4.32;3.00;;;;;;;;;;5028913;28;20726;-76
2024/01/13 07:28:51;;;;;;;4.60;2.83;;;;;;;;;;5028244;28;20041;-77
2024/01/13 07:31:18;;;;;;;3.97;2.30;;;;;;;;;;5027844;28;20056;-77
2024/01/13 07:33:43;;;;;;;4.68;2.40;;;;;;;;;;5028946;28;20139;-77
2024/01/13 07:36:09;;;;;;;5.22;2.70;;;;;;;;;;5028562;28;20049;-77
2024/01/13 07:38:35;;;;;;;5.30;2.40;;;;;;;;;;5028085;28;20057;-77
2024/01/13 07:41:01;;;;;;;3.80;2.72;;;;;;;;;;5028412;28;20151;-76
2024/01/13 07:43:27;;;;;;;2.88;2.30;;;;;;;;;;5027795;28;20045;-77
2024/01/13 07:45:53;;;;;;;5.53;2.38;;;;;;;;;;5010384;28;20125;-77
2024/01/13 07:48:19;;;;;;;6.82;3.17;;;;;;;;;;5028755;28;20357;-78
2024/01/13 07:50:45;;;;;;;2.70;2.38;;;;;;;;;;5027119;28;20052;-78
2024/01/13 07:53:11;;;;;;;3.83;2.40;;;;;;;;;;5011973;28;20053;-77
2024/01/13 07:55:37;;;;;;;3.00;2.10;;;;;;;;;;5032693;28;20057;-78
2024/01/13 07:58:03;;;;;;;5.57;2.15;;;;;;;;;;5032705;28;20067;-77
2024/01/13 08:00:29;;;;;;;2.25;1.90;;;;;;;;;;5031756;28;20052;-77
2024/01/13 08:02:55;;;;;;;3.50;2.17;;;;;;;;;;5029989;28;20057;-77
2024/01/13 08:05:22;;;;;;;2.00;1.70;;;;;;;;;;5032084;28;20045;-78
2024/01/13 08:07:48;;;;;;;3.10;1.92;;;;;;;;;;5031873;28;20077;-78
2024/01/13 08:10:14;;;;;;;1.95;1.75;;;;;;;;;;5031150;28;20076;-78
2024/01/13 08:12:40;;;;;;;1.80;1.67;;;;;;;;;;5032541;28;20064;-78
2024/01/13 08:15:07;;;;;;;3.00;2.10;;;;;;;;;;5013124;28;20053;-77
2024/01/13 08:17:33;;;;;;;4.80;2.20;;;;;;;;;;5030824;28;20510;-78
2024/01/13 08:19:59;;;;;;;3.35;2.33;;;;;;;;;;5031274;28;20132;-78
2024/01/13 08:22:25;;;;;;;4.90;2.50;;;;;;;;;;5013946;28;20089;-77
2024/01/13 08:24:51;;;;;;;3.38;2.47;;;;;;;;;;5031369;28;20088;-78
2024/01/13 08:27:17;;;;;;;6.07;3.38;;;;;;;;;;5014112;28;20049;-78
2024/01/13 08:29:43;;;;;;;4.82;2.92;;;;;;;;;;5014765;28;20068;-78
2024/01/13 08:32:09;;;;;;;6.10;3.00;;;;;;;;;;5013736;28;20045;-78
2024/01/13 08:34:35;;;;;;;6.90;3.65;;;;;;;;;;5013694;28;20049;-78
2024/01/13 08:37:01;;;;;;;8.85;4.82;;;;;;;;;;5031364;28;20160;-78
2024/01/13 08:39:27;;;;;;;8.10;4.60;;;;;;;;;;5030561;28;20085;-78
2024/01/13 08:41:54;;;;;;;10.63;5.38;;;;;;;;;;4997508;28;20236;-78
2024/01/13 08:44:20;;;;;;;10.38;5.50;;;;;;;;;;5013105;28;20390;-78
2024/01/13 08:46:45;;;;;;;10.30;5.95;;;;;;;;;;5012764;28;20049;-78
2024/01/13 08:49:13;;;;;;;13.85;6.47;;;;;;;;;;5031246;28;20155;-78
2024/01/13 08:51:39;;;;;;;13.15;6.38;;;;;;;;;;5030724;28;20042;-78
2024/01/13 08:54:06;;;;;;;15.25;7.05;;;;;;;;;;5030318;28;20060;-78
2024/01/13 08:56:34;;;;;;;16.27;7.20;;;;;;;;;;5030885;28;20448;-78
2024/01/13 08:59:01;;;;;;;21.25;9.38;;;;;;;;;;5030960;28;20046;-78
2024/01/13 09:01:27;;;;;;;22.90;10.60;;;;;;;;;;4996576;28;20104;-78
2024/01/13 09:03:53;;;;;;;25.63;11.48;;;;;;;;;;5012998;28;20507;-79
2024/01/13 09:06:19;;;;;;;25.48;10.60;;;;;;;;;;5013597;28;20511;-78
2024/01/13 09:08:44;;;;;;;26.90;12.40;;;;;;;;;;5030285;28;20041;-78
2024/01/13 09:11:10;;;;;;;29.27;12.70;;;;;;;;;;5031131;28;20536;-77
2024/01/13 09:13:37;;;;;;;29.48;12.65;;;;;;;;;;5031441;28;20133;-77
2024/01/13 09:16:03;;;;;;;36.13;14.82;;;;;;;;;;5031157;28;20084;-77
2024/01/13 09:18:29;;;;;;;33.25;14.38;;;;;;;;;;5013246;28;20049;-77
2024/01/13 09:20:55;;;;;;;33.13;15.10;;;;;;;;;;5028576;28;20048;-77
2024/01/13 09:23:21;;;;;;;46.22;16.80;;;;;;;;;;5027905;28;21224;-79
2024/01/13 09:25:47;;;;;;;38.45;17.73;;;;;;;;;;5030450;28;20479;-78
2024/01/13 09:28:13;;;;;;;41.80;17.08;;;;;;;;;;5028748;28;20053;-79
2024/01/13 09:30:40;;;;;;;44.00;17.35;;;;;;;;;;5029727;28;20057;-79
2024/01/13 09:33:06;;;;;;;45.72;17.88;;;;;;;;;;5012854;28;20137;-79
2024/01/13 09:35:32;;;;;;;50.55;18.38;;;;;;;;;;5012789;28;20053;-79
2024/01/13 09:37:58;;;;;;;45.47;19.15;;;;;;;;;;5029537;28;20056;-78
2024/01/13 09:40:25;;;;;;;51.65;21.38;;;;;;;;;;5029670;28;20480;-79
2024/01/13 09:43:10;;;;;;;48.55;20.40;;;;;;;;;;5028907;28;20052;-78
2024/01/13 09:45:38;;;;;;;47.70;20.85;;;;;;;;;;5031064;28;20056;-78
2024/01/13 09:48:05;;;;;;;51.15;21.38;;;;;;;;;;5030212;28;20812;-78
2024/01/13 09:50:32;;;;;;;57.90;23.00;;;;;;;;;;5030541;28;20041;-78
2024/01/13 09:52:58;;;;;;;53.35;23.17;;;;;;;;;;5029649;28;20047;-78
2024/01/13 09:55:25;;;;;;;56.67;23.83;;;;;;;;;;5029356;28;20088;-78
2024/01/13 09:57:51;;;;;;;57.97;24.83;;;;;;;;;;5030440;28;20057;-77
2024/01/13 10:00:17;;;;;;;55.63;25.15;;;;;;;;;;5029219;28;20049;-78
2024/01/13 10:02:43;;;;;;;58.97;23.95;;;;;;;;;;5029857;28;20054;-78
2024/01/13 10:05:09;;;;;;;55.17;24.73;;;;;;;;;;5012255;28;20053;-78
2024/01/13 10:07:37;;;;;;;53.65;26.15;;;;;;;;;;5028928;28;20499;-78
2024/01/13 10:10:03;;;;;;;53.85;25.52;;;;;;;;;;5030241;28;20099;-78
2024/01/13 10:12:29;;;;;;;56.08;24.55;;;;;;;;;;5030282;28;20049;-78
2024/01/13 10:14:55;;;;;;;59.03;26.45;;;;;;;;;;5029395;28;20061;-78
2024/01/13 10:17:21;;;;;;;50.88;25.73;;;;;;;;;;5030086;28;20045;-78
2024/01/13 10:19:49;;;;;;;54.80;26.70;;;;;;;;;;5028352;28;20588;-78
2024/01/13 10:22:15;;;;;;;64.70;33.20;;;;;;;;;;5029389;28;20101;-79
2024/01/13 10:24:41;;;;;;;54.65;25.02;;;;;;;;;;5011805;28;20073;-78
2024/01/13 10:27:10;;;;;;;54.78;26.13;;;;;;;;;;5029154;28;20091;-78
2024/01/13 10:29:36;;;;;;;52.03;25.73;;;;;;;;;;5029995;28;20046;-78
2024/01/13 10:32:02;;;;;;;54.30;27.00;;;;;;;;;;5028412;28;20490;-78
2024/01/13 10:34:28;;;;;;;56.10;25.58;;;;;;;;;;5027992;28;20049;-77
2024/01/13 10:37:07;;;;;;;49.25;26.90;;;;;;;;;;5009999;28;20041;-78
2024/01/13 10:39:33;;;;;;;51.35;26.83;;;;;;;;;;5028180;28;20049;-77
2024/01/13 10:41:59;;;;;;;54.53;26.35;;;;;;;;;;5028081;28;20091;-77
2024/01/13 10:44:27;;;;;;;50.22;25.73;;;;;;;;;;5028827;28;20496;-78
2024/01/13 10:46:54;;;;;;;50.60;26.42;;;;;;;;;;5028500;28;20064;-78
2024/01/13 10:49:29;;;;;;;45.50;25.25;;;;;;;;;;5011613;28;20053;-78
2024/01/13 10:51:58;;;;;;;49.45;24.17;;;;;;;;;;5028886;28;20052;-78
2024/01/13 10:54:27;;;;;;;44.85;25.33;;;;;;;;;;5028966;28;20140;-77
2024/01/13 10:56:54;;;;;;;51.45;25.90;;;;;;;;;;5029153;28;20045;-77
2024/01/13 10:59:20;;;;;;;49.72;25.52;;;;;;;;;;5028222;28;20041;-76
2024/01/13 11:01:46;;;;;;;53.28;26.30;;;;;;;;;;5010646;28;20100;-77
2024/01/13 11:04:13;;;;;;;51.45;27.30;;;;;;;;;;5029077;28;20045;-77
2024/01/13 11:06:39;;;;;;;53.42;26.55;;;;;;;;;;5029079;28;20045;-77
2024/01/13 11:09:08;;;;;;;52.15;26.60;;;;;;;;;;5028499;28;20420;-78
2024/01/13 11:11:38;;;;;;;46.92;25.33;;;;;;;;;;4994930;28;20057;-78
2024/01/13 11:14:07;;;;;;;48.17;25.27;;;;;;;;;;5027439;28;20499;-78
2024/01/13 11:16:34;;;;;;;50.17;25.75;;;;;;;;;;4994791;28;20049;-76
2024/01/13 11:19:00;;;;;;;50.20;26.77;;;;;;;;;;5028459;28;20454;-76
2024/01/13 11:21:28;;;;;;;46.33;24.70;;;;;;;;;;5011564;28;20060;-77
2024/01/13 11:23:54;;;;;;;50.95;25.98;;;;;;;;;;5028939;28;20064;-76
2024/01/13 11:26:22;;;;;;;44.22;24.88;;;;;;;;;;5010218;28;20049;-77
2024/01/13 11:28:52;;;;;;;47.53;25.42;;;3.80;99.90;;;;;;5032966;28;20519;-78
2024/01/13 11:31:36;;;;;;;48.20;25.10;;;3.80;99.90;;;;;;5011551;28;20053;-79
2024/01/13 11:34:04;;;;;;;47.70;25.20;;;3.80;99.90;;;;;;5029640;28;20415;-79
2024/01/13 11:36:33;;;;;;;45.70;23.17;;;3.80;99.90;;;;;;5015307;28;20100;-78
2024/01/13 11:39:05;;;;;;;51.78;25.60;;;3.80;99.90;;;;;;5022810;28;20042;-78
2024/01/13 11:41:45;;;;;;;47.10;24.25;;;3.80;99.90;;;;;;5028593;28;20431;-80
2024/01/13 11:44:32;;;;;;;48.35;25.10;;;3.80;99.90;;;;;;5031252;28;20141;-78
2024/01/13 11:47:09;;;;;;;45.42;23.90;;;3.80;99.90;;;;;;5030890;28;21020;-79
2024/01/13 11:49:37;;;;;;;48.55;23.23;;;3.80;99.90;;;;;;5019587;28;20049;-79
2024/01/13 11:52:29;;;;;;;44.42;23.05;;;3.80;99.90;;;;;;4997770;28;20037;-79
2024/01/13 11:54:54;;;;;;;42.97;23.35;;;3.80;99.90;;;;;;5008165;28;20085;-78
2024/01/13 11:57:20;;;;;;;45.05;22.73;;;3.80;99.90;;;;;;5024623;28;20037;-78
2024/01/13 11:59:46;;;;;;;45.97;23.42;;;3.80;99.90;;;;;;5014339;28;20044;-77
2024/01/13 12:02:12;;;;;;;50.92;22.48;;;3.80;99.90;;;;;;5031716;28;20096;-78
2024/01/13 12:04:40;;;;;;;46.17;22.70;;;3.90;99.90;;;;;;5013493;28;20155;-76
2024/01/13 12:07:08;;;;;;;41.85;22.98;;;3.90;99.90;;;;;;5014026;28;20132;-77
2024/01/13 12:09:34;;;;;;;42.53;22.38;;;3.90;99.90;;;;;;5032367;28;20044;-77
2024/01/13 12:12:02;;;;;;;45.55;22.50;;;3.90;99.90;;;;;;5014139;28;20050;-77
2024/01/13 12:14:36;;;;;;;48.90;23.35;;;3.90;99.90;;;;;;5013727;28;20037;-77
2024/01/13 12:17:03;;;;;;;43.30;22.52;;;3.90;99.90;;;;;;5030623;28;20045;-77
2024/01/13 12:19:36;;;;;;;46.45;22.58;;;3.90;99.90;;;;;;5030590;28;20096;-77
2024/01/13 12:22:11;;;;;;;38.50;20.75;;;4.00;99.90;;;;;;5030105;28;20046;-79
2024/01/13 12:24:37;;;;;;;40.63;21.48;;;4.00;99.90;;;;;;5032078;28;20095;-78
2024/01/13 12:27:03;;;;;;;37.75;21.70;;;4.10;99.90;;;;;;5031293;28;20514;-78
2024/01/13 12:29:31;;;;;;;45.47;21.92;;;4.20;99.90;;;;;;5031398;28;20033;-78
2024/01/13 12:32:03;;;;;;;42.45;20.85;;;4.10;99.90;;;;;;5012412;28;20107;-79
2024/01/13 12:34:31;;;;;;;37.80;21.40;;;4.10;99.90;;;;;;5012555;28;20064;-79
2024/01/13 12:36:57;;;;;;;42.25;21.02;;;4.10;99.90;;;;;;5031284;28;20415;-79
2024/01/13 12:39:24;;;;;;;40.03;21.45;;;4.10;99.90;;;;;;5030189;28;20042;-79
2024/01/13 12:41:50;;;;;;;40.22;21.35;;;4.10;99.90;;;;;;5031358;28;20045;-78
2024/01/13 12:44:16;;;;;;;46.92;22.75;;;4.00;99.90;;;;;;5031741;28;20412;-78
2024/01/13 12:46:41;;;;;;;41.42;22.23;;;4.00;99.90;;;;;;5030594;28;20037;-78
2024/01/13 12:49:16;;;;;;;44.95;22.13;;;4.00;99.90;;;;;;5012679;28;20119;-79
2024/01/13 12:51:43;;;;;;;42.03;21.83;;;4.00;99.90;;;;;;5031413;28;20470;-80
2024/01/13 12:54:09;;;;;;;45.83;21.50;;;4.00;99.90;;;;;;5012901;28;20108;-78
2024/01/13 12:56:36;;;;;;;37.90;19.73;;;4.00;99.90;;;;;;5030221;28;20135;-79
2024/01/13 12:59:02;;;;;;;40.42;20.30;;;4.00;99.90;;;;;;5030624;28;20049;-79
2024/01/13 13:01:28;;;;;;;39.15;19.42;;;4.00;99.90;;;;;;5012768;28;20089;-79
2024/01/13 13:03:54;;;;;;;38.70;20.52;;;3.90;99.90;;;;;;5031204;28;20050;-80
2024/01/13 13:06:21;;;;;;;42.15;19.98;;;3.90;99.90;;;;;;5031086;28;20052;-79
2024/01/13 13:08:46;;;;;;;40.15;19.77;;;4.00;99.90;;;;;;5012760;28;20057;-79
2024/01/13 13:11:14;;;;;;;35.97;18.42;;;3.90;99.90;;;;;;5029891;28;20419;-79
2024/01/13 13:13:40;;;;;;;33.45;18.23;;;4.00;99.90;;;;;;5012202;28;20045;-79
2024/01/13 13:16:06;;;;;;;32.97;17.05;;;4.00;99.90;;;;;;5030325;28;20407;-78
2024/01/13 13:18:32;;;;;;;41.25;19.45;;;3.90;99.90;;;;;;5026358;28;20511;-79
2024/01/13 13:20:57;;;;;;;34.05;18.10;;;3.90;99.90;;;;;;5029482;28;20052;-80
2024/01/13 13:23:23;;;;;;;34.53;17.38;;;3.90;99.90;;;;;;5029686;28;20041;-79
2024/01/13 13:25:49;;;;;;;37.05;17.40;;;3.90;99.90;;;;;;5012695;28;20396;-79
2024/01/13 13:28:16;;;;;;;31.88;16.95;;;3.80;99.90;;;;;;5013275;28;20045;-78
2024/01/13 13:30:42;;;;;;;26.40;14.27;;;3.90;99.90;;;;;;5030144;28;20076;-80
2024/01/13 13:33:09;;;;;;;30.92;14.63;;;3.90;99.90;;;;;;5012365;28;20042;-79
2024/01/13 13:35:38;;;;;;;28.40;14.98;;;3.90;99.90;;;;;;5028353;28;20844;-79
2024/01/13 13:38:05;;;;;;;26.45;13.98;;;3.90;99.90;;;;;;5029529;28;20099;-78
2024/01/13 13:40:31;;;;;;;28.40;14.57;;;3.90;99.90;;;;;;5028348;28;20041;-76
2024/01/13 13:42:56;;;;;;;26.20;14.02;;;3.90;99.90;;;;;;5030067;28;20553;-77
2024/01/13 13:45:22;;;;;;;25.42;14.13;;;3.90;99.90;;;;;;5030292;28;20103;-77
2024/01/13 13:47:48;;;;;;;26.85;14.02;;;3.90;99.90;;;;;;5028587;28;20124;-77
2024/01/13 13:50:13;;;;;;;29.02;14.50;;;3.90;99.90;;;;;;5029207;28;20509;-77
2024/01/13 13:52:39;;;;;;;22.02;12.52;;;3.90;99.90;;;;;;5029566;28;20110;-77
2024/01/13 13:55:04;;;;;;;23.30;12.73;;;3.90;99.90;;;;;;5029671;28;20042;-77
2024/01/13 13:57:31;;;;;;;21.38;12.93;;;3.90;99.90;;;;;;5029778;28;20453;-77
2024/01/13 13:59:56;;;;;;;21.20;12.13;;;3.90;99.90;;;;;;5030363;28;20041;-77
2024/01/13 14:02:22;;;;;;;23.23;12.30;;;3.90;99.90;;;;;;5029861;28;20659;-77
2024/01/13 14:04:48;;;;;;;24.38;12.18;;;3.90;99.90;;;;;;5030085;28;20050;-77
2024/01/13 14:07:15;;;;;;;21.40;12.82;;;3.90;99.90;;;;;;5010792;28;20817;-77